Archival Weather

Aeroparque Jorge Newbery

Buenos Aires, Argentina (SABE)

Report from: Sunday, March 19, 2023 8:00 PM -03
Current time: Sunday, July 14, 2024 8:26 AM -03

Current weather – Weather history – Daily summaries
Weather forecast

Temperature27.0°C (80.6°F)
Heat index29.7°C (85.5°F)
Dew point23.0°C (73.4°F)
Winds 5 kts (2.6 m/s, 5.8 mph) East (80°)
Clouds Sky clear
Altimeter29.83 in.Hg (1010 mB)
Relative humidity79 %
Density altitude1,870 ft. (570 m)
Remarks Ceiling and visibility OK
No significant changes expected in the next two hours
Flight conditions Visual Meteorological Conditions
Raw dataSABE 192300Z 08005KT CAVOK 27/23 Q1010 NOSIG RMK PP000
An error has occurred. This application may no longer respond until reloaded. Reload 🗙